createdAt,value
2022-09-23T00:00:03.397Z,19.69
2022-09-23T00:00:15.394Z,19.71
2022-09-23T00:00:26.406Z,19.69
2022-09-23T00:00:38.405Z,19.69
2022-09-23T00:00:50.400Z,19.69
2022-09-23T00:01:02.504Z,19.67
2022-09-23T00:01:14.491Z,19.70
2022-09-23T00:01:25.636Z,19.69
2022-09-23T00:01:37.583Z,19.69
2022-09-23T00:01:49.425Z,19.70
2022-09-23T00:02:00.535Z,19.69
2022-09-23T00:02:11.443Z,19.69
2022-09-23T00:02:22.449Z,19.69
2022-09-23T00:02:34.429Z,19.70
2022-09-23T00:02:46.463Z,19.67
2022-09-23T00:02:57.474Z,19.69
2022-09-23T00:03:08.414Z,19.69
2022-09-23T00:03:20.412Z,19.73
2022-09-23T00:03:31.408Z,19.70
2022-09-23T00:03:43.424Z,19.69
2022-09-23T00:03:54.431Z,19.70
2022-09-23T00:04:06.434Z,19.69
2022-09-23T00:04:17.437Z,19.69
2022-09-23T00:04:29.430Z,19.69
2022-09-23T00:04:41.445Z,19.70
2022-09-23T00:04:52.427Z,19.70
2022-09-23T00:05:04.431Z,19.69
2022-09-23T00:05:16.425Z,19.70
2022-09-23T00:05:28.417Z,19.69
2022-09-23T00:05:40.416Z,19.69
2022-09-23T00:05:52.419Z,19.69
2022-09-23T00:06:04.421Z,19.70
2022-09-23T00:06:16.414Z,19.70
2022-09-23T00:06:28.409Z,19.70
2022-09-23T00:06:40.407Z,19.69
2022-09-23T00:06:52.395Z,19.69
2022-09-23T00:07:04.401Z,19.69
2022-09-23T00:07:16.405Z,19.69
2022-09-23T00:07:28.399Z,19.69
2022-09-23T00:07:40.398Z,19.69
2022-09-23T00:07:52.395Z,19.69
2022-09-23T00:08:04.386Z,19.69
2022-09-23T00:08:16.381Z,19.70
2022-09-23T00:08:27.372Z,19.69
2022-09-23T00:08:38.473Z,19.70
2022-09-23T00:08:50.457Z,19.69
2022-09-23T00:09:02.447Z,19.69
2022-09-23T00:09:13.454Z,19.67
2022-09-23T00:09:25.457Z,19.69
2022-09-23T00:09:37.467Z,19.70
2022-09-23T00:09:49.382Z,19.69
2022-09-23T00:10:00.379Z,19.69
2022-09-23T00:10:11.377Z,19.69
2022-09-23T00:10:23.383Z,19.70
2022-09-23T00:10:34.379Z,19.70
2022-09-23T00:10:45.388Z,19.67
2022-09-23T00:10:57.388Z,19.70
2022-09-23T00:11:09.389Z,19.69
2022-09-23T00:11:21.375Z,19.69
2022-09-23T00:11:32.463Z,19.69
2022-09-23T00:11:44.375Z,19.69
2022-09-23T00:11:55.366Z,19.69
2022-09-23T00:12:09.002Z,19.70
2022-09-23T00:12:18.407Z,19.67
2022-09-23T00:12:30.427Z,19.66
2022-09-23T00:12:42.416Z,19.70
2022-09-23T00:12:53.417Z,19.67
2022-09-23T00:13:05.409Z,19.67
2022-09-23T00:13:16.410Z,19.70
2022-09-23T00:13:28.412Z,19.69
2022-09-23T00:13:39.427Z,19.70
2022-09-23T00:13:51.415Z,19.69
2022-09-23T00:14:02.414Z,19.69
2022-09-23T00:14:14.420Z,19.69
2022-09-23T00:14:26.421Z,19.67
2022-09-23T00:14:37.438Z,19.69
2022-09-23T00:14:48.441Z,19.67
2022-09-23T00:14:59.441Z,19.69
2022-09-23T00:15:10.436Z,19.69
2022-09-23T00:15:22.433Z,19.67
2022-09-23T00:15:34.412Z,19.69
2022-09-23T00:15:46.416Z,19.69
2022-09-23T00:15:58.416Z,19.66
2022-09-23T00:16:10.400Z,19.70
2022-09-23T00:16:22.504Z,19.70
2022-09-23T00:16:34.622Z,19.70
2022-09-23T00:16:45.425Z,19.69
2022-09-23T00:16:57.452Z,19.70
2022-09-23T00:17:08.506Z,19.67
2022-09-23T00:17:19.452Z,19.69
2022-09-23T00:17:31.446Z,19.69
2022-09-23T00:17:43.440Z,19.67
2022-09-23T00:17:55.433Z,19.69
2022-09-23T00:18:06.436Z,19.69
2022-09-23T00:18:18.437Z,19.69
2022-09-23T00:18:29.444Z,19.70
2022-09-23T00:18:40.447Z,19.69
2022-09-23T00:18:52.447Z,19.69
2022-09-23T00:19:03.455Z,19.67
2022-09-23T00:19:15.448Z,19.69
2022-09-23T00:19:26.448Z,19.67
2022-09-23T00:19:38.467Z,19.67
2022-09-23T00:19:50.377Z,19.69
2022-09-23T00:20:01.460Z,19.67
2022-09-23T00:20:13.461Z,19.69
2022-09-23T00:20:25.364Z,19.69
2022-09-23T00:20:36.472Z,19.67
2022-09-23T00:20:48.452Z,19.67
2022-09-23T00:21:00.439Z,19.69
2022-09-23T00:21:12.434Z,19.69
2022-09-23T00:21:24.426Z,19.69
2022-09-23T00:21:36.424Z,19.70
2022-09-23T00:21:48.426Z,19.69
2022-09-23T00:22:00.419Z,19.69
2022-09-23T00:22:12.417Z,19.69
2022-09-23T00:22:23.422Z,19.67
2022-09-23T00:22:35.420Z,19.69
2022-09-23T00:22:47.417Z,19.69
2022-09-23T00:22:59.409Z,19.69
2022-09-23T00:23:11.410Z,19.67
2022-09-23T00:23:23.400Z,19.67
2022-09-23T00:23:35.399Z,19.69
2022-09-23T00:23:47.393Z,19.69
2022-09-23T00:23:59.450Z,19.69
2022-09-23T00:24:10.436Z,19.69
2022-09-23T00:24:22.429Z,19.70
2022-09-23T00:24:34.425Z,19.69
2022-09-23T00:24:46.434Z,19.69
2022-09-23T00:24:57.443Z,19.69
2022-09-23T00:25:09.433Z,19.67
2022-09-23T00:25:21.417Z,19.67
2022-09-23T00:25:33.415Z,19.67
2022-09-23T00:25:45.416Z,19.67
2022-09-23T00:25:57.409Z,19.67
2022-09-23T00:26:09.403Z,19.69
2022-09-23T00:26:21.411Z,19.67
2022-09-23T00:26:33.398Z,19.67
2022-09-23T00:26:45.391Z,19.67
2022-09-23T00:26:57.379Z,19.69
2022-09-23T00:27:09.373Z,19.69
2022-09-23T00:27:20.376Z,19.67
2022-09-23T00:27:31.461Z,19.67
2022-09-23T00:27:43.460Z,19.67
2022-09-23T00:27:55.455Z,19.69
2022-09-23T00:28:07.450Z,19.67
2022-09-23T00:28:19.437Z,19.67
2022-09-23T00:28:30.449Z,19.67
2022-09-23T00:28:42.453Z,19.67
2022-09-23T00:28:54.446Z,19.67
2022-09-23T00:29:06.443Z,19.67
2022-09-23T00:29:18.465Z,19.70
2022-09-23T00:29:29.452Z,19.67
2022-09-23T00:29:41.439Z,19.67
2022-09-23T00:29:53.440Z,19.69
2022-09-23T00:30:05.430Z,19.67
2022-09-23T00:30:17.420Z,19.69
2022-09-23T00:30:28.452Z,19.69
2022-09-23T00:30:40.459Z,19.67
2022-09-23T00:30:52.459Z,19.69
2022-09-23T00:31:04.488Z,19.67
2022-09-23T00:31:16.458Z,19.69
2022-09-23T00:31:27.488Z,19.69
2022-09-23T00:31:38.412Z,19.67
2022-09-23T00:31:50.407Z,19.67
2022-09-23T00:32:02.405Z,19.67
2022-09-23T00:32:13.397Z,19.69
2022-09-23T00:32:25.398Z,19.67
2022-09-23T00:32:36.408Z,19.67
2022-09-23T00:32:48.408Z,19.70
2022-09-23T00:33:00.403Z,19.67
2022-09-23T00:33:12.400Z,19.69
2022-09-23T00:33:24.392Z,19.66
2022-09-23T00:33:35.395Z,19.66
2022-09-23T00:33:47.384Z,19.67
2022-09-23T00:33:59.382Z,19.69
2022-09-23T00:34:11.387Z,19.67
2022-09-23T00:34:23.398Z,19.69
2022-09-23T00:34:34.392Z,19.69
2022-09-23T00:34:46.389Z,19.69
2022-09-23T00:34:58.379Z,19.67
2022-09-23T00:35:10.378Z,19.69
2022-09-23T00:35:22.368Z,19.69
2022-09-23T00:35:33.458Z,19.67
2022-09-23T00:35:45.447Z,19.69
2022-09-23T00:35:57.439Z,19.67
2022-09-23T00:36:09.441Z,19.67
2022-09-23T00:36:21.434Z,19.67
2022-09-23T00:36:32.467Z,19.69
2022-09-23T00:36:43.466Z,19.69
2022-09-23T00:36:55.364Z,19.67
2022-09-23T00:37:06.370Z,19.67
2022-09-23T00:37:17.456Z,19.69
2022-09-23T00:37:29.448Z,19.67
2022-09-23T00:37:41.439Z,19.67
2022-09-23T00:37:53.433Z,19.69
2022-09-23T00:38:04.438Z,19.67
2022-09-23T00:38:16.427Z,19.66
2022-09-23T00:38:28.430Z,19.69
2022-09-23T00:38:40.433Z,19.69
2022-09-23T00:38:52.432Z,19.69
2022-09-23T00:39:04.774Z,19.67
2022-09-23T00:39:15.441Z,19.67
2022-09-23T00:39:26.457Z,19.66
2022-09-23T00:39:38.449Z,19.67
2022-09-23T00:39:50.449Z,19.67
2022-09-23T00:40:01.448Z,19.69
2022-09-23T00:40:13.474Z,19.69
2022-09-23T00:40:24.512Z,19.67
2022-09-23T00:40:35.458Z,19.69
2022-09-23T00:40:46.460Z,19.67
2022-09-23T00:40:58.419Z,19.69
2022-09-23T00:41:09.439Z,19.69
2022-09-23T00:41:21.408Z,19.66
2022-09-23T00:41:32.381Z,19.67
2022-09-23T00:41:44.377Z,19.69
2022-09-23T00:41:56.374Z,19.67
2022-09-23T00:42:08.378Z,19.66
2022-09-23T00:42:19.378Z,19.67
2022-09-23T00:42:30.366Z,19.67
2022-09-23T00:42:41.461Z,19.69
2022-09-23T00:42:53.457Z,19.67
2022-09-23T00:43:04.460Z,19.67
2022-09-23T00:43:16.443Z,19.67
2022-09-23T00:43:27.445Z,19.69
2022-09-23T00:43:38.453Z,19.69
2022-09-23T00:43:49.365Z,19.67
2022-09-23T00:44:00.471Z,19.67
2022-09-23T00:44:11.369Z,19.66
2022-09-23T00:44:23.381Z,19.67
2022-09-23T00:44:34.392Z,19.69
2022-09-23T00:44:45.394Z,19.66
2022-09-23T00:44:56.408Z,19.67
2022-09-23T00:45:08.405Z,19.67
2022-09-23T00:45:20.400Z,19.67
2022-09-23T00:45:32.403Z,19.69
2022-09-23T00:45:43.475Z,19.67
2022-09-23T00:45:54.428Z,19.67
2022-09-23T00:46:05.471Z,19.66
2022-09-23T00:46:17.452Z,19.67
2022-09-23T00:46:29.486Z,19.67
2022-09-23T00:46:40.433Z,19.66
2022-09-23T00:46:51.435Z,19.66
2022-09-23T00:47:02.434Z,19.67
2022-09-23T00:47:14.434Z,19.64
2022-09-23T00:47:26.443Z,19.66
2022-09-23T00:47:37.439Z,19.69
2022-09-23T00:47:48.450Z,19.67
2022-09-23T00:48:00.449Z,19.67
2022-09-23T00:48:12.443Z,19.66
2022-09-23T00:48:24.436Z,19.69
2022-09-23T00:48:36.438Z,19.67
2022-09-23T00:48:47.441Z,19.67
2022-09-23T00:48:59.435Z,19.67
2022-09-23T00:49:11.428Z,19.67
2022-09-23T00:49:23.436Z,19.67
2022-09-23T00:49:34.433Z,19.66
2022-09-23T00:49:46.439Z,19.67
2022-09-23T00:49:57.436Z,19.67
2022-09-23T00:50:09.437Z,19.66
2022-09-23T00:50:21.444Z,19.67
2022-09-23T00:50:32.442Z,19.66
2022-09-23T00:50:43.441Z,19.67
2022-09-23T00:50:55.433Z,19.69
2022-09-23T00:51:06.452Z,19.66
2022-09-23T00:51:17.465Z,19.67
2022-09-23T00:51:28.365Z,19.67
2022-09-23T00:51:39.463Z,19.67
2022-09-23T00:51:51.451Z,19.67
2022-09-23T00:52:03.454Z,19.66
2022-09-23T00:52:14.457Z,19.67
2022-09-23T00:52:25.464Z,19.67
2022-09-23T00:52:37.460Z,19.67
2022-09-23T00:52:49.464Z,19.67
2022-09-23T00:53:01.462Z,19.66
2022-09-23T00:53:13.460Z,19.66
2022-09-23T00:53:25.456Z,19.67
2022-09-23T00:53:36.462Z,19.66
2022-09-23T00:53:48.465Z,19.66
2022-09-23T00:54:00.450Z,19.67
2022-09-23T00:54:12.435Z,19.67
2022-09-23T00:54:24.454Z,19.66
2022-09-23T00:54:36.441Z,19.67
2022-09-23T00:54:48.442Z,19.69
2022-09-23T00:55:00.441Z,19.67
2022-09-23T00:55:12.438Z,19.67
2022-09-23T00:55:24.431Z,19.67
2022-09-23T00:55:36.420Z,19.69
2022-09-23T00:55:48.407Z,19.66
2022-09-23T00:56:00.392Z,19.66
2022-09-23T00:56:12.380Z,19.67
2022-09-23T00:56:23.364Z,19.66
2022-09-23T00:56:34.456Z,19.67
2022-09-23T00:56:46.464Z,19.67
2022-09-23T00:56:57.453Z,19.67
2022-09-23T00:57:09.441Z,19.66
2022-09-23T00:57:21.440Z,19.66
2022-09-23T00:57:32.444Z,19.66
2022-09-23T00:57:44.437Z,19.66
2022-09-23T00:57:56.428Z,19.67
2022-09-23T00:58:08.422Z,19.67
2022-09-23T00:58:19.427Z,19.69
2022-09-23T00:58:30.438Z,19.67
2022-09-23T00:58:42.434Z,19.66
2022-09-23T00:58:53.436Z,19.67
2022-09-23T00:59:05.427Z,19.66
2022-09-23T00:59:16.431Z,19.67
2022-09-23T00:59:28.448Z,19.64
2022-09-23T00:59:39.449Z,19.67
2022-09-23T00:59:51.453Z,19.67
2022-09-23T01:00:02.458Z,19.66
2022-09-23T01:00:14.457Z,19.66
2022-09-23T01:00:26.462Z,19.66
2022-09-23T01:00:37.464Z,19.67
2022-09-23T01:00:49.461Z,19.66
2022-09-23T01:01:01.574Z,19.67
2022-09-23T01:01:13.446Z,19.67
2022-09-23T01:01:25.523Z,19.66
2022-09-23T01:01:37.593Z,19.66
2022-09-23T01:01:49.459Z,19.67
2022-09-23T01:02:00.523Z,19.66
2022-09-23T01:02:12.450Z,19.67
2022-09-23T01:02:23.476Z,19.66
2022-09-23T01:02:34.464Z,19.66
2022-09-23T01:02:45.498Z,19.67
2022-09-23T01:02:56.455Z,19.67
2022-09-23T01:03:07.458Z,19.66
2022-09-23T01:03:19.461Z,19.66
2022-09-23T01:03:30.470Z,19.66
2022-09-23T01:03:42.449Z,19.67
2022-09-23T01:03:54.446Z,19.67
2022-09-23T01:04:06.437Z,19.66
2022-09-23T01:04:18.436Z,19.67
2022-09-23T01:04:29.451Z,19.66
2022-09-23T01:04:40.459Z,19.66
2022-09-23T01:04:52.452Z,19.67
2022-09-23T01:05:03.461Z,19.64
2022-09-23T01:05:15.458Z,19.67
2022-09-23T01:05:26.465Z,19.66
2022-09-23T01:05:37.371Z,19.64
2022-09-23T01:05:49.373Z,19.67
2022-09-23T01:06:00.365Z,19.66
2022-09-23T01:06:11.454Z,19.67
2022-09-23T01:06:23.464Z,19.66
2022-09-23T01:06:35.460Z,19.66
2022-09-23T01:06:47.463Z,19.66
2022-09-23T01:06:58.461Z,19.64
2022-09-23T01:07:10.365Z,19.67
2022-09-23T01:07:21.367Z,19.67
2022-09-23T01:07:32.373Z,19.67
2022-09-23T01:07:44.369Z,19.66
2022-09-23T01:07:55.374Z,19.66
2022-09-23T01:08:06.368Z,19.66
2022-09-23T01:08:17.452Z,19.64
2022-09-23T01:08:29.441Z,19.67
2022-09-23T01:08:41.444Z,19.66
2022-09-23T01:08:53.444Z,19.67
2022-09-23T01:09:05.502Z,19.66
2022-09-23T01:09:16.460Z,19.66
2022-09-23T01:09:28.464Z,19.66
2022-09-23T01:09:39.456Z,19.66
2022-09-23T01:09:51.457Z,19.66
2022-09-23T01:10:03.439Z,19.66
2022-09-23T01:10:15.432Z,19.66
2022-09-23T01:10:27.430Z,19.64
2022-09-23T01:10:39.432Z,19.66
2022-09-23T01:10:51.434Z,19.64
2022-09-23T01:11:03.431Z,19.66
2022-09-23T01:11:14.433Z,19.66
2022-09-23T01:11:26.446Z,19.66
2022-09-23T01:11:37.450Z,19.66
2022-09-23T01:11:49.451Z,19.66
2022-09-23T01:12:00.456Z,19.63
2022-09-23T01:12:12.449Z,19.66
2022-09-23T01:12:24.441Z,19.66
2022-09-23T01:12:36.440Z,19.64
2022-09-23T01:12:48.438Z,19.66
2022-09-23T01:13:00.437Z,19.67
2022-09-23T01:13:12.436Z,19.66
2022-09-23T01:13:24.432Z,19.66
2022-09-23T01:13:36.425Z,19.64
2022-09-23T01:13:47.431Z,19.66
2022-09-23T01:13:59.426Z,19.64
2022-09-23T01:14:11.440Z,19.64
2022-09-23T01:14:23.448Z,19.66
2022-09-23T01:14:35.434Z,19.66
2022-09-23T01:14:47.433Z,19.66
2022-09-23T01:14:58.432Z,19.66
2022-09-23T01:15:10.426Z,19.66
2022-09-23T01:15:22.425Z,19.66
2022-09-23T01:15:33.423Z,19.67
2022-09-23T01:15:45.422Z,19.66
2022-09-23T01:15:57.427Z,19.66
2022-09-23T01:16:09.437Z,19.64
2022-09-23T01:16:21.483Z,19.66
2022-09-23T01:16:32.504Z,19.66
2022-09-23T01:16:44.454Z,19.66
2022-09-23T01:16:55.419Z,19.64
2022-09-23T01:17:07.502Z,19.66
2022-09-23T01:17:18.440Z,19.64
2022-09-23T01:17:30.435Z,19.64
2022-09-23T01:17:41.441Z,19.64
2022-09-23T01:17:53.435Z,19.66
2022-09-23T01:18:05.433Z,19.64
2022-09-23T01:18:16.439Z,19.64
2022-09-23T01:18:27.436Z,19.66
2022-09-23T01:18:38.445Z,19.66
2022-09-23T01:18:50.435Z,19.66
2022-09-23T01:19:02.436Z,19.67
2022-09-23T01:19:14.428Z,19.66
2022-09-23T01:19:26.431Z,19.63
2022-09-23T01:19:37.428Z,19.64
2022-09-23T01:19:49.428Z,19.64
2022-09-23T01:20:01.429Z,19.66
2022-09-23T01:20:13.420Z,19.66
2022-09-23T01:20:25.423Z,19.66
2022-09-23T01:20:37.413Z,19.66
2022-09-23T01:20:48.411Z,19.66
2022-09-23T01:21:00.411Z,19.66
2022-09-23T01:21:12.406Z,19.64
2022-09-23T01:21:24.402Z,19.66
2022-09-23T01:21:36.406Z,19.66
2022-09-23T01:21:47.406Z,19.64
2022-09-23T01:21:59.411Z,19.66
2022-09-23T01:22:11.413Z,19.63
2022-09-23T01:22:22.413Z,19.66
2022-09-23T01:22:34.413Z,19.64
2022-09-23T01:22:46.403Z,19.64
2022-09-23T01:22:58.403Z,19.66
2022-09-23T01:23:10.395Z,19.66
2022-09-23T01:23:21.395Z,19.64
2022-09-23T01:23:32.393Z,19.64
2022-09-23T01:23:44.396Z,19.66
2022-09-23T01:23:55.395Z,19.64
2022-09-23T01:24:07.426Z,19.66
2022-09-23T01:24:18.414Z,19.66
2022-09-23T01:24:30.409Z,19.64
2022-09-23T01:24:41.407Z,19.66
2022-09-23T01:24:53.407Z,19.66
2022-09-23T01:25:04.409Z,19.67
2022-09-23T01:25:16.409Z,19.66
2022-09-23T01:25:28.400Z,19.64
2022-09-23T01:25:40.398Z,19.64
2022-09-23T01:25:52.406Z,19.64
2022-09-23T01:26:04.408Z,19.64
2022-09-23T01:26:16.405Z,19.64
2022-09-23T01:26:28.395Z,19.64
2022-09-23T01:26:40.396Z,19.66
2022-09-23T01:26:52.390Z,19.64
2022-09-23T01:27:04.378Z,19.66
2022-09-23T01:27:16.380Z,19.66
2022-09-23T01:27:27.378Z,19.64
2022-09-23T01:27:39.377Z,19.66
2022-09-23T01:27:50.378Z,19.64
2022-09-23T01:28:02.388Z,19.64
2022-09-23T01:28:14.393Z,19.66
2022-09-23T01:28:26.398Z,19.66
2022-09-23T01:28:38.394Z,19.66
2022-09-23T01:28:49.398Z,19.66
2022-09-23T01:29:00.402Z,19.64
2022-09-23T01:29:12.399Z,19.64
2022-09-23T01:29:24.402Z,19.66
2022-09-23T01:29:35.403Z,19.66
2022-09-23T01:29:46.405Z,19.66
2022-09-23T01:29:58.393Z,19.66
2022-09-23T01:30:10.392Z,19.66
2022-09-23T01:30:21.398Z,19.66
2022-09-23T01:30:32.470Z,19.64
2022-09-23T01:30:43.459Z,19.64
2022-09-23T01:30:54.437Z,19.66
2022-09-23T01:31:05.433Z,19.66
2022-09-23T01:31:16.452Z,19.64
2022-09-23T01:31:28.421Z,19.66
2022-09-23T01:31:40.414Z,19.63
2022-09-23T01:31:52.433Z,19.66
2022-09-23T01:32:03.407Z,19.64
2022-09-23T01:32:15.408Z,19.64
2022-09-23T01:32:27.398Z,19.64
2022-09-23T01:32:39.392Z,19.63
2022-09-23T01:32:51.390Z,19.62
2022-09-23T01:33:03.392Z,19.66
2022-09-23T01:33:15.389Z,19.63
2022-09-23T01:33:26.398Z,19.64
2022-09-23T01:33:37.398Z,19.63
2022-09-23T01:33:48.399Z,19.63
2022-09-23T01:33:59.398Z,19.64
2022-09-23T01:34:11.399Z,19.64
2022-09-23T01:34:22.402Z,19.64
2022-09-23T01:34:34.415Z,19.64
2022-09-23T01:34:45.424Z,19.63
2022-09-23T01:34:57.490Z,19.64
2022-09-23T01:35:09.389Z,19.63
2022-09-23T01:35:20.391Z,19.63
2022-09-23T01:35:31.401Z,19.64
2022-09-23T01:35:42.402Z,19.63
2022-09-23T01:35:53.404Z,19.64
2022-09-23T01:36:05.396Z,19.63
2022-09-23T01:36:16.398Z,19.63
2022-09-23T01:36:28.402Z,19.64
2022-09-23T01:36:39.411Z,19.63
2022-09-23T01:36:51.409Z,19.64
2022-09-23T01:37:03.410Z,19.64
2022-09-23T01:37:15.406Z,19.63
2022-09-23T01:37:27.402Z,19.64
2022-09-23T01:37:39.402Z,19.62
2022-09-23T01:37:50.419Z,19.64
2022-09-23T01:38:02.404Z,19.64
2022-09-23T01:38:14.412Z,19.63
2022-09-23T01:38:25.408Z,19.62
2022-09-23T01:38:36.412Z,19.63
2022-09-23T01:38:47.413Z,19.64
2022-09-23T01:38:58.424Z,19.64
2022-09-23T01:39:10.535Z,19.64
2022-09-23T01:39:22.375Z,19.63
2022-09-23T01:39:34.385Z,19.63
2022-09-23T01:39:45.394Z,19.64
2022-09-23T01:39:56.394Z,19.63
2022-09-23T01:40:07.441Z,19.63
2022-09-23T01:40:18.436Z,19.66
2022-09-23T01:40:29.430Z,19.63
2022-09-23T01:40:41.499Z,19.63
2022-09-23T01:40:52.460Z,19.63
2022-09-23T01:41:03.433Z,19.63
2022-09-23T01:41:15.438Z,19.64
2022-09-23T01:41:27.435Z,19.63
2022-09-23T01:41:39.429Z,19.63
2022-09-23T01:41:51.430Z,19.63
2022-09-23T01:42:03.423Z,19.64
2022-09-23T01:42:15.419Z,19.63
2022-09-23T01:42:26.417Z,19.64
2022-09-23T01:42:38.419Z,19.63
2022-09-23T01:42:49.426Z,19.63
2022-09-23T01:43:01.420Z,19.63
2022-09-23T01:43:12.428Z,19.63
2022-09-23T01:43:23.431Z,19.64
2022-09-23T01:43:35.430Z,19.63
2022-09-23T01:43:47.438Z,19.63
2022-09-23T01:43:59.435Z,19.62
2022-09-23T01:44:11.433Z,19.63
2022-09-23T01:44:23.428Z,19.64
2022-09-23T01:44:34.440Z,19.64
2022-09-23T01:44:45.428Z,19.63
2022-09-23T01:44:57.419Z,19.62
2022-09-23T01:45:09.421Z,19.64
2022-09-23T01:45:21.418Z,19.63
2022-09-23T01:45:32.425Z,19.63
2022-09-23T01:45:44.419Z,19.64
2022-09-23T01:45:56.426Z,19.63
2022-09-23T01:46:08.421Z,19.63
2022-09-23T01:46:20.416Z,19.63
2022-09-23T01:46:31.419Z,19.63
2022-09-23T01:46:42.425Z,19.63
2022-09-23T01:46:54.520Z,19.63
2022-09-23T01:47:05.462Z,19.62
2022-09-23T01:47:17.365Z,19.63
2022-09-23T01:47:28.456Z,19.63
2022-09-23T01:47:40.459Z,19.63
2022-09-23T01:47:52.498Z,19.63
2022-09-23T01:48:03.510Z,19.63
2022-09-23T01:48:14.478Z,19.63
2022-09-23T01:48:26.429Z,19.64
2022-09-23T01:48:37.450Z,19.63
2022-09-23T01:48:48.463Z,19.63
2022-09-23T01:49:00.362Z,19.63
2022-09-23T01:49:11.460Z,19.63
2022-09-23T01:49:23.453Z,19.63
2022-09-23T01:49:35.470Z,19.63
2022-09-23T01:49:47.371Z,19.62
2022-09-23T01:49:58.460Z,19.63
2022-09-23T01:50:10.358Z,19.62
2022-09-23T01:50:21.450Z,19.63
2022-09-23T01:50:33.434Z,19.64
2022-09-23T01:50:45.430Z,19.63
2022-09-23T01:50:56.432Z,19.63
2022-09-23T01:51:08.440Z,19.62
2022-09-23T01:51:19.438Z,19.64
2022-09-23T01:51:31.438Z,19.63
2022-09-23T01:51:43.447Z,19.64
2022-09-23T01:51:54.445Z,19.63
2022-09-23T01:52:06.459Z,19.63
2022-09-23T01:52:18.447Z,19.62
2022-09-23T01:52:30.440Z,19.63
2022-09-23T01:52:42.443Z,19.64
2022-09-23T01:52:54.433Z,19.62
2022-09-23T01:53:06.427Z,19.63
2022-09-23T01:53:17.435Z,19.64
2022-09-23T01:53:29.420Z,19.63
2022-09-23T01:53:41.413Z,19.63
2022-09-23T01:53:53.413Z,19.62
2022-09-23T01:54:04.423Z,19.63
2022-09-23T01:54:16.428Z,19.63
2022-09-23T01:54:28.442Z,19.63
2022-09-23T01:54:39.433Z,19.63
2022-09-23T01:54:51.429Z,19.62
2022-09-23T01:55:03.435Z,19.62
2022-09-23T01:55:15.427Z,19.63
2022-09-23T01:55:27.426Z,19.64
2022-09-23T01:55:39.425Z,19.64
2022-09-23T01:55:51.424Z,19.62
2022-09-23T01:56:03.422Z,19.62
2022-09-23T01:56:15.421Z,19.63
2022-09-23T01:56:27.413Z,19.63
2022-09-23T01:56:39.413Z,19.63
2022-09-23T01:56:50.416Z,19.62
2022-09-23T01:57:02.405Z,19.62
2022-09-23T01:57:14.406Z,19.62
2022-09-23T01:57:25.409Z,19.62
2022-09-23T01:57:37.405Z,19.62
2022-09-23T01:57:49.406Z,19.62
2022-09-23T01:58:01.409Z,19.62
2022-09-23T01:58:13.415Z,19.63
2022-09-23T01:58:24.412Z,19.59
2022-09-23T01:58:36.404Z,19.59
2022-09-23T01:58:48.388Z,19.63
2022-09-23T01:59:00.389Z,19.62
2022-09-23T01:59:12.384Z,19.62
2022-09-23T01:59:24.391Z,19.63
2022-09-23T01:59:36.387Z,19.62
2022-09-23T01:59:48.395Z,19.62
2022-09-23T02:00:00.388Z,19.62
2022-09-23T02:00:11.390Z,19.62
2022-09-23T02:00:23.387Z,19.59
2022-09-23T02:00:35.383Z,19.62
2022-09-23T02:00:47.379Z,19.62
2022-09-23T02:00:59.488Z,19.59
2022-09-23T02:01:10.498Z,19.62
2022-09-23T02:01:21.512Z,19.62
2022-09-23T02:01:33.466Z,19.62
2022-09-23T02:01:45.456Z,19.59
2022-09-23T02:01:56.495Z,19.59
2022-09-23T02:02:07.522Z,19.62
2022-09-23T02:02:18.424Z,19.59
2022-09-23T02:02:29.431Z,19.62
2022-09-23T02:02:40.505Z,19.63
2022-09-23T02:02:52.577Z,19.63
2022-09-23T02:03:04.427Z,19.63
2022-09-23T02:03:16.426Z,19.63
2022-09-23T02:03:27.429Z,19.62
2022-09-23T02:03:39.427Z,19.63
2022-09-23T02:03:50.428Z,19.62
2022-09-23T02:04:02.455Z,19.62
2022-09-23T02:04:14.417Z,19.63
2022-09-23T02:04:26.424Z,19.62
2022-09-23T02:04:37.423Z,19.62
2022-09-23T02:04:49.428Z,19.59
2022-09-23T02:05:01.417Z,19.59
2022-09-23T02:05:13.418Z,19.59
2022-09-23T02:05:25.417Z,19.59
2022-09-23T02:05:36.415Z,19.62
2022-09-23T02:05:48.403Z,19.63
2022-09-23T02:06:00.404Z,19.63
2022-09-23T02:06:12.390Z,19.59
2022-09-23T02:06:23.391Z,19.62
2022-09-23T02:06:34.394Z,19.59
2022-09-23T02:06:45.401Z,19.59
2022-09-23T02:06:57.389Z,19.59
2022-09-23T02:07:09.397Z,19.62
2022-09-23T02:07:21.389Z,19.62
2022-09-23T02:07:33.396Z,19.59
2022-09-23T02:07:45.389Z,19.62
2022-09-23T02:07:57.383Z,19.59
2022-09-23T02:08:08.381Z,19.59
2022-09-23T02:08:20.388Z,19.59
2022-09-23T02:08:31.387Z,19.62
2022-09-23T02:08:43.392Z,19.62
2022-09-23T02:08:55.396Z,19.59
2022-09-23T02:09:07.401Z,19.62
2022-09-23T02:09:19.409Z,19.59
2022-09-23T02:09:30.400Z,19.59
2022-09-23T02:09:42.404Z,19.59
2022-09-23T02:09:54.405Z,19.62
2022-09-23T02:10:06.407Z,19.59
2022-09-23T02:10:17.413Z,19.62
2022-09-23T02:10:29.407Z,19.62
2022-09-23T02:10:40.415Z,19.62
2022-09-23T02:10:52.403Z,19.62
2022-09-23T02:11:04.394Z,19.62
2022-09-23T02:11:16.389Z,19.62
2022-09-23T02:11:27.386Z,19.62
2022-09-23T02:11:39.378Z,19.62
2022-09-23T02:11:51.382Z,19.59
2022-09-23T02:12:02.390Z,19.62
2022-09-23T02:12:14.378Z,19.59
2022-09-23T02:12:25.384Z,19.62
2022-09-23T02:12:37.380Z,19.59
2022-09-23T02:12:49.369Z,19.59
2022-09-23T02:13:00.382Z,19.59
2022-09-23T02:13:12.369Z,19.62
2022-09-23T02:13:23.371Z,19.59
2022-09-23T02:13:35.377Z,19.59
2022-09-23T02:13:46.355Z,19.59
2022-09-23T02:13:57.441Z,19.59
2022-09-23T02:14:09.441Z,19.62
2022-09-23T02:14:21.442Z,19.59
2022-09-23T02:14:32.426Z,19.59
2022-09-23T02:14:44.425Z,19.59
2022-09-23T02:14:55.432Z,19.62
2022-09-23T02:15:07.429Z,19.59
2022-09-23T02:15:19.421Z,19.63
2022-09-23T02:15:31.409Z,19.59
2022-09-23T02:15:43.416Z,19.59
2022-09-23T02:15:55.416Z,19.59
2022-09-23T02:16:06.427Z,19.58
2022-09-23T02:16:18.530Z,19.59
2022-09-23T02:16:30.420Z,19.58
2022-09-23T02:16:42.464Z,19.58
2022-09-23T02:16:54.434Z,19.59
2022-09-23T02:17:05.390Z,19.58
2022-09-23T02:17:16.410Z,19.59
2022-09-23T02:17:28.380Z,19.58
2022-09-23T02:17:40.368Z,19.59
2022-09-23T02:17:52.366Z,19.59
2022-09-23T02:18:04.365Z,19.59
2022-09-23T02:18:15.376Z,19.59
2022-09-23T02:18:26.360Z,19.58
2022-09-23T02:18:37.459Z,19.59
2022-09-23T02:18:49.361Z,19.59
2022-09-23T02:19:00.357Z,19.59
2022-09-23T02:19:11.358Z,19.62
2022-09-23T02:19:22.486Z,19.59
2022-09-23T02:19:34.384Z,19.59
2022-09-23T02:19:46.382Z,19.58
2022-09-23T02:19:57.386Z,19.59
2022-09-23T02:20:09.374Z,19.59
2022-09-23T02:20:21.365Z,19.59
2022-09-23T02:20:32.358Z,19.59
2022-09-23T02:20:43.448Z,19.58
2022-09-23T02:20:54.448Z,19.59
2022-09-23T02:21:06.446Z,19.62
2022-09-23T02:21:18.441Z,19.59
2022-09-23T02:21:29.448Z,19.58
2022-09-23T02:21:41.443Z,19.59
2022-09-23T02:21:52.449Z,19.58
2022-09-23T02:22:04.449Z,19.59
2022-09-23T02:22:15.454Z,19.58
2022-09-23T02:22:26.458Z,19.62
2022-09-23T02:22:38.451Z,19.58
2022-09-23T02:22:50.441Z,19.59
2022-09-23T02:23:02.441Z,19.58
2022-09-23T02:23:13.441Z,19.62
2022-09-23T02:23:24.442Z,19.56
2022-09-23T02:23:36.446Z,19.56
2022-09-23T02:23:48.434Z,19.62
2022-09-23T02:24:00.434Z,19.59
2022-09-23T02:24:12.421Z,19.59
2022-09-23T02:24:23.428Z,19.59
2022-09-23T02:24:34.420Z,19.62
2022-09-23T02:24:46.429Z,19.62
2022-09-23T02:24:58.423Z,19.59
2022-09-23T02:25:10.422Z,19.59
2022-09-23T02:25:21.428Z,19.58
2022-09-23T02:25:33.425Z,19.62
2022-09-23T02:25:44.420Z,19.59
2022-09-23T02:25:56.422Z,19.59
2022-09-23T02:26:07.425Z,19.62
2022-09-23T02:26:19.412Z,19.59
2022-09-23T02:26:31.411Z,19.59
2022-09-23T02:26:43.397Z,19.56
2022-09-23T02:26:55.391Z,19.59
2022-09-23T02:27:06.403Z,19.59
2022-09-23T02:27:17.407Z,19.58
2022-09-23T02:27:29.405Z,19.58
2022-09-23T02:27:41.400Z,19.58
2022-09-23T02:27:53.400Z,19.58
2022-09-23T02:28:05.386Z,19.59
2022-09-23T02:28:17.377Z,19.59
2022-09-23T02:28:29.371Z,19.59
2022-09-23T02:28:41.369Z,19.58
2022-09-23T02:28:52.365Z,19.58
2022-09-23T02:29:03.354Z,19.59
2022-09-23T02:29:14.354Z,19.59
2022-09-23T02:29:25.466Z,19.58
2022-09-23T02:29:37.357Z,19.58
2022-09-23T02:29:48.355Z,19.59